createdAt,value
2022-10-06T00:01:04.219Z,100195.66
2022-10-06T00:03:51.733Z,100201.16
2022-10-06T00:06:40.485Z,100198.00
2022-10-06T00:09:27.956Z,100208.00
2022-10-06T00:12:15.324Z,100207.72
2022-10-06T00:15:02.422Z,100215.09
2022-10-06T00:17:50.472Z,100214.81
2022-10-06T00:20:37.860Z,100220.84
2022-10-06T00:23:26.903Z,100213.19
2022-10-06T00:26:16.824Z,100213.94
2022-10-06T00:29:04.933Z,100215.78
2022-10-06T00:31:52.521Z,100208.41
2022-10-06T00:34:39.800Z,100205.53
2022-10-06T00:37:27.214Z,100202.91
2022-10-06T00:40:15.977Z,100215.56
2022-10-06T00:43:06.090Z,100221.34
2022-10-06T00:45:54.186Z,100225.03
2022-10-06T00:48:42.154Z,100217.38
2022-10-06T00:51:31.475Z,100221.03
2022-10-06T00:54:20.375Z,100211.56
2022-10-06T00:57:09.483Z,100211.56
2022-10-06T00:59:57.080Z,100213.66
2022-10-06T01:02:50.269Z,100233.38
2022-10-06T01:05:43.411Z,100242.00
2022-10-06T01:08:32.555Z,100261.47
2022-10-06T01:11:19.986Z,100266.44
2022-10-06T01:14:09.024Z,100272.75
2022-10-06T01:17:01.122Z,100276.97
2022-10-06T01:19:53.546Z,100281.66
2022-10-06T01:22:45.564Z,100285.09
2022-10-06T01:25:34.646Z,100269.00
2022-10-06T01:28:22.632Z,100272.94
2022-10-06T01:31:11.292Z,100285.84
2022-10-06T01:33:58.775Z,100283.53
2022-10-06T01:36:46.804Z,100283.56
2022-10-06T01:39:36.286Z,100289.38
2022-10-06T01:42:24.409Z,100289.13
2022-10-06T01:45:12.337Z,100294.66
2022-10-06T01:47:59.689Z,100293.06
2022-10-06T01:50:48.184Z,100297.28
2022-10-06T01:53:35.986Z,100304.16
2022-10-06T01:56:24.959Z,100296.25
2022-10-06T01:59:12.422Z,100309.72
2022-10-06T02:02:00.006Z,100305.00
2022-10-06T02:04:47.718Z,100309.47
2022-10-06T02:07:36.840Z,100306.84
2022-10-06T02:10:24.310Z,100311.06
2022-10-06T02:13:14.271Z,100307.41
2022-10-06T02:16:01.961Z,100314.25
2022-10-06T02:18:49.357Z,100310.03
2022-10-06T02:21:36.596Z,100320.56
2022-10-06T02:24:23.947Z,100323.44
2022-10-06T02:27:11.424Z,100318.94
2022-10-06T02:30:00.140Z,100326.84
2022-10-06T02:32:48.294Z,100340.00
2022-10-06T02:35:35.929Z,100341.63
2022-10-06T02:38:23.912Z,100349.78
2022-10-06T02:41:11.982Z,100352.16
2022-10-06T02:44:00.085Z,100344.50
2022-10-06T02:46:49.841Z,100356.34
2022-10-06T02:49:38.303Z,100366.31
2022-10-06T02:52:25.794Z,100364.41
2022-10-06T02:55:13.781Z,100377.03
2022-10-06T02:58:01.417Z,100383.88
2022-10-06T03:00:48.948Z,100393.09
2022-10-06T03:03:39.257Z,100389.16
2022-10-06T03:06:28.644Z,100396.50
2022-10-06T03:09:24.345Z,100394.34
2022-10-06T03:12:13.495Z,100412.00
2022-10-06T03:15:04.709Z,100427.22
2022-10-06T03:17:52.683Z,100419.75
2022-10-06T03:20:41.464Z,100434.75
2022-10-06T03:23:29.279Z,100436.03
2022-10-06T03:26:18.705Z,100444.72
2022-10-06T03:29:11.137Z,100451.81
2022-10-06T03:32:03.145Z,100448.66
2022-10-06T03:34:50.852Z,100448.66
2022-10-06T03:37:39.965Z,100458.13
2022-10-06T03:40:27.867Z,100464.72
2022-10-06T03:43:15.616Z,100471.84
2022-10-06T03:46:04.369Z,100479.75
2022-10-06T03:48:54.055Z,100485.78
2022-10-06T03:51:43.048Z,100489.78
2022-10-06T03:54:40.640Z,100492.94
2022-10-06T03:57:27.875Z,100502.41
2022-10-06T04:00:16.629Z,100504.56
2022-10-06T04:03:05.677Z,100507.66
2022-10-06T04:05:58.509Z,100509.78
2022-10-06T04:08:49.388Z,100524.22
2022-10-06T04:11:40.811Z,100528.94
2022-10-06T04:14:28.934Z,100533.38
2022-10-06T04:17:17.213Z,100536.25
2022-10-06T04:20:04.901Z,100539.69
2022-10-06T04:22:52.770Z,100541.28
2022-10-06T04:25:40.091Z,100550.53
2022-10-06T04:28:29.033Z,100552.38
2022-10-06T04:31:20.184Z,100555.00
2022-10-06T04:34:09.033Z,100560.81
2022-10-06T04:36:56.712Z,100556.09
2022-10-06T04:39:44.678Z,100561.91
2022-10-06T04:42:35.069Z,100552.16
2022-10-06T04:45:26.512Z,100558.81
2022-10-06T04:48:14.989Z,100569.88
2022-10-06T04:51:05.079Z,100574.09
2022-10-06T04:53:53.308Z,100582.78
2022-10-06T04:56:41.788Z,100577.28
2022-10-06T04:59:43.764Z,100587.56
2022-10-06T05:02:33.829Z,100583.03
2022-10-06T05:05:21.267Z,100590.38
2022-10-06T05:08:10.797Z,100593.56
2022-10-06T05:11:01.697Z,100592.78
2022-10-06T05:13:51.805Z,100601.44
2022-10-06T05:16:39.281Z,100600.91
2022-10-06T05:19:29.440Z,100616.38
2022-10-06T05:22:17.327Z,100610.03
2022-10-06T05:25:05.781Z,100615.56
2022-10-06T05:27:53.384Z,100624.03
2022-10-06T05:30:41.120Z,100639.59
2022-10-06T05:33:31.169Z,100638.78
2022-10-06T05:36:22.863Z,100647.97
2022-10-06T05:39:12.151Z,100649.78
2022-10-06T05:42:09.730Z,100652.94
2022-10-06T05:44:58.290Z,100660.03
2022-10-06T05:47:45.676Z,100655.00
2022-10-06T05:50:33.108Z,100661.06
2022-10-06T05:53:21.741Z,100660.28
2022-10-06T05:56:11.813Z,100676.63
2022-10-06T05:59:02.037Z,100678.22
2022-10-06T06:01:50.413Z,100684.53
2022-10-06T06:04:42.584Z,100692.66
2022-10-06T06:07:12.376Z,100698.69
2022-10-06T06:09:45.659Z,100696.31
2022-10-06T06:12:16.583Z,100706.84
2022-10-06T06:15:08.947Z,100708.13
2022-10-06T06:17:42.905Z,100715.47
2022-10-06T06:20:11.948Z,100721.28
2022-10-06T06:22:41.235Z,100724.97
2022-10-06T06:25:13.001Z,100729.16
2022-10-06T06:27:43.820Z,100741.28
2022-10-06T06:30:13.716Z,100737.63
2022-10-06T06:32:43.286Z,100744.47
2022-10-06T06:35:12.777Z,100749.75
2022-10-06T06:37:41.884Z,100750.56
2022-10-06T06:40:12.378Z,100751.34
2022-10-06T06:42:44.386Z,100757.97
2022-10-06T06:45:36.041Z,100769.28
2022-10-06T06:48:23.675Z,100764.00
2022-10-06T06:50:59.530Z,100769.84
2022-10-06T06:53:32.324Z,100779.09
2022-10-06T06:56:05.205Z,100788.56
2022-10-06T06:58:36.205Z,100781.47
2022-10-06T07:01:13.774Z,100786.28
2022-10-06T07:03:57.181Z,100797.34
2022-10-06T07:06:29.434Z,100795.34
2022-10-06T07:09:01.279Z,100800.78
2022-10-06T07:11:35.288Z,100800.38
2022-10-06T07:14:09.392Z,100795.75
2022-10-06T07:17:07.530Z,100807.94
2022-10-06T07:19:55.538Z,100823.00
2022-10-06T07:22:45.995Z,100820.13
2022-10-06T07:25:26.042Z,100830.13
2022-10-06T07:28:04.359Z,100830.59
2022-10-06T07:30:40.972Z,100834.28
2022-10-06T07:33:15.837Z,100834.78
2022-10-06T07:35:47.118Z,100842.91
2022-10-06T07:38:18.729Z,100852.63
2022-10-06T07:41:14.936Z,100859.50
2022-10-06T07:43:47.628Z,100862.78
2022-10-06T07:46:19.393Z,100862.97
2022-10-06T07:49:12.144Z,100868.38
2022-10-06T07:51:42.997Z,100871.94
2022-10-06T07:54:12.274Z,100870.28
2022-10-06T07:56:48.820Z,100876.78
2022-10-06T07:59:22.219Z,100873.22
2022-10-06T08:01:52.619Z,100873.88
2022-10-06T08:04:21.705Z,100877.75
2022-10-06T08:06:50.688Z,100867.28
2022-10-06T08:09:20.053Z,100877.97
2022-10-06T08:11:49.003Z,100881.22
2022-10-06T08:14:19.407Z,100879.75
2022-10-06T08:16:48.393Z,100885.63
2022-10-06T08:19:19.648Z,100884.19
2022-10-06T08:21:48.669Z,100889.28
2022-10-06T08:24:19.718Z,100887.59
2022-10-06T08:26:48.674Z,100889.31
2022-10-06T08:29:19.074Z,100896.00
2022-10-06T08:31:48.127Z,100895.28
2022-10-06T08:34:17.231Z,100892.41
2022-10-06T08:37:02.141Z,100892.72
2022-10-06T08:39:35.264Z,100894.63
2022-10-06T08:42:04.570Z,100898.91
2022-10-06T08:44:40.644Z,100903.44
2022-10-06T08:47:18.874Z,100900.03
2022-10-06T08:49:50.318Z,100899.28
2022-10-06T08:52:37.431Z,100915.75
2022-10-06T08:55:24.567Z,100920.03
2022-10-06T08:58:11.918Z,100910.78
2022-10-06T09:00:42.382Z,100914.50
2022-10-06T09:03:23.109Z,100914.31
2022-10-06T09:05:54.309Z,100907.97
2022-10-06T09:08:42.277Z,100920.19
2022-10-06T09:11:37.192Z,100920.19
2022-10-06T09:14:14.145Z,100924.44
2022-10-06T09:16:53.720Z,100920.75
2022-10-06T09:19:32.865Z,100921.81
2022-10-06T09:22:05.653Z,100916.56
2022-10-06T09:24:41.449Z,100916.59
2022-10-06T09:27:20.299Z,100918.16
2022-10-06T09:29:50.041Z,100929.28
2022-10-06T09:32:22.649Z,100931.91
2022-10-06T09:34:56.275Z,100950.75
2022-10-06T09:37:25.580Z,100946.53
2022-10-06T09:39:55.881Z,100954.47
2022-10-06T09:42:28.352Z,100954.72
2022-10-06T09:45:03.968Z,100952.34
2022-10-06T09:47:41.140Z,100949.97
2022-10-06T09:50:23.617Z,100951.56
2022-10-06T09:53:18.482Z,100949.19
2022-10-06T09:55:54.865Z,100961.63
2022-10-06T09:58:34.735Z,100961.09
2022-10-06T10:01:07.177Z,100961.59
2022-10-06T10:04:19.870Z,100956.31
2022-10-06T10:06:42.414Z,100954.69
2022-10-06T10:09:28.863Z,100954.44
2022-10-06T10:12:27.634Z,100953.66
2022-10-06T10:15:01.897Z,100948.91
2022-10-06T10:17:40.245Z,100958.97
2022-10-06T10:20:29.032Z,100942.53
2022-10-06T10:23:01.328Z,100954.75
2022-10-06T10:26:17.695Z,100948.91
2022-10-06T10:29:08.033Z,100953.69
2022-10-06T10:31:51.235Z,100955.25
2022-10-06T10:34:42.076Z,100956.31
2022-10-06T10:37:16.174Z,100949.44
2022-10-06T10:39:52.281Z,100949.97
2022-10-06T10:42:29.205Z,100945.72
2022-10-06T10:45:02.823Z,100948.38
2022-10-06T10:47:37.890Z,100940.94
2022-10-06T10:50:12.611Z,100946.22
2022-10-06T10:52:45.698Z,100944.06
2022-10-06T10:55:29.025Z,100943.03
2022-10-06T10:58:05.917Z,100936.94
2022-10-06T11:00:40.320Z,100936.16
2022-10-06T11:03:11.720Z,100944.41
2022-10-06T11:06:08.841Z,100952.59
2022-10-06T11:08:46.087Z,100947.81
2022-10-06T11:11:23.543Z,100969.06
2022-10-06T11:13:54.829Z,100960.03
2022-10-06T11:16:37.302Z,100956.84
2022-10-06T11:19:22.965Z,100964.28
2022-10-06T11:22:00.133Z,100961.63
2022-10-06T11:24:37.690Z,100955.78
2022-10-06T11:27:23.399Z,100952.59
2022-10-06T11:30:04.974Z,100957.91
2022-10-06T11:32:48.649Z,100940.69
2022-10-06T11:35:22.977Z,100951.81
2022-10-06T11:38:00.309Z,100943.63
2022-10-06T11:40:42.609Z,100937.50
2022-10-06T11:43:21.850Z,100938.56
2022-10-06T11:46:01.029Z,100933.81
2022-10-06T11:48:32.131Z,100940.16
2022-10-06T11:51:31.898Z,100931.69
2022-10-06T11:54:01.099Z,100934.31
2022-10-06T11:56:41.060Z,100930.09
2022-10-06T11:59:26.726Z,100918.94
2022-10-06T12:02:04.997Z,100920.78
2022-10-06T12:04:34.144Z,100925.03
2022-10-06T12:07:05.324Z,100926.09
2022-10-06T12:09:53.184Z,100916.28
2022-10-06T12:13:07.204Z,100916.03
2022-10-06T12:19:19.358Z,100909.66
2022-10-06T12:22:01.523Z,100914.44
2022-10-06T12:24:42.875Z,100913.91
2022-10-06T12:27:36.597Z,100905.94
2022-10-06T12:30:22.549Z,100906.47
2022-10-06T12:32:54.941Z,100906.50
2022-10-06T12:35:32.034Z,100913.94
2022-10-06T12:38:04.861Z,100908.63
2022-10-06T12:40:49.280Z,100905.44
2022-10-06T12:43:56.963Z,100891.13
2022-10-06T12:46:38.203Z,100891.66
2022-10-06T12:49:42.669Z,100890.06
2022-10-06T12:52:32.522Z,100884.22
2022-10-06T12:55:16.300Z,100892.69
2022-10-06T12:57:50.811Z,100898.75
2022-10-06T13:00:34.983Z,100889.50
2022-10-06T13:03:08.879Z,100893.97
2022-10-06T13:05:38.591Z,100892.38
2022-10-06T13:08:22.619Z,100893.97
2022-10-06T13:10:51.668Z,100887.31
2022-10-06T13:13:24.741Z,100891.03
2022-10-06T13:15:55.964Z,100887.31
2022-10-06T13:18:26.434Z,100881.50
2022-10-06T13:20:57.022Z,100882.28
2022-10-06T13:23:29.238Z,100880.16
2022-10-06T13:26:00.194Z,100884.94
2022-10-06T13:28:48.551Z,100880.94
2022-10-06T13:31:22.521Z,100878.78
2022-10-06T13:33:57.569Z,100870.28
2022-10-06T13:36:27.207Z,100884.84
2022-10-06T13:38:56.431Z,100870.00
2022-10-06T13:41:31.714Z,100879.25
2022-10-06T13:44:04.095Z,100881.09
2022-10-06T13:46:41.012Z,100877.38
2022-10-06T13:49:21.238Z,100881.91
2022-10-06T13:51:53.770Z,100875.81
2022-10-06T13:54:29.470Z,100876.06
2022-10-06T13:56:59.280Z,100882.13
2022-10-06T13:59:36.678Z,100873.69
2022-10-06T14:02:26.705Z,100864.38
2022-10-06T14:05:29.328Z,100865.94
2022-10-06T14:08:02.015Z,100871.97
2022-10-06T14:10:45.998Z,100865.34
2022-10-06T14:13:19.765Z,100863.16
2022-10-06T14:15:51.812Z,100867.09
2022-10-06T14:18:24.404Z,100869.47
2022-10-06T14:20:56.504Z,100867.88
2022-10-06T14:23:49.891Z,100861.81
2022-10-06T14:26:21.379Z,100859.16
2022-10-06T14:28:52.977Z,100859.94
2022-10-06T14:31:23.642Z,100857.28
2022-10-06T14:33:54.703Z,100857.56
2022-10-06T14:36:28.210Z,100850.13
2022-10-06T14:38:59.460Z,100863.63
2022-10-06T14:41:31.017Z,100860.94
2022-10-06T14:44:02.956Z,100857.75
2022-10-06T14:46:32.036Z,100851.38
2022-10-06T14:49:03.241Z,100853.22
2022-10-06T14:51:36.576Z,100853.19
2022-10-06T14:54:07.514Z,100842.31
2022-10-06T14:56:39.323Z,100848.41
2022-10-06T14:59:11.986Z,100846.53
2022-10-06T15:01:41.588Z,100839.44
2022-10-06T15:04:14.233Z,100844.97
2022-10-06T15:07:02.379Z,100837.78
2022-10-06T15:09:32.072Z,100839.34
2022-10-06T15:12:01.649Z,100839.63
2022-10-06T15:14:30.866Z,100840.69
2022-10-06T15:17:00.396Z,100832.19
2022-10-06T15:19:29.629Z,100835.34
2022-10-06T15:22:00.567Z,100827.41
2022-10-06T15:24:29.819Z,100827.31
2022-10-06T15:27:17.657Z,100828.09
2022-10-06T15:29:48.292Z,100815.59
2022-10-06T15:32:17.276Z,100821.44
2022-10-06T15:34:46.345Z,100819.84
2022-10-06T15:37:19.938Z,100826.16
2022-10-06T15:39:48.958Z,100829.06
2022-10-06T15:42:21.629Z,100820.34
2022-10-06T15:44:50.897Z,100817.16
2022-10-06T15:47:19.880Z,100820.31
2022-10-06T15:49:49.367Z,100825.06
2022-10-06T15:52:19.721Z,100822.66
2022-10-06T15:54:49.905Z,100823.16
2022-10-06T15:57:21.228Z,100820.22
2022-10-06T15:59:51.299Z,100819.38
2022-10-06T16:02:22.363Z,100828.88
2022-10-06T16:05:17.715Z,100830.16
2022-10-06T16:07:48.087Z,100830.13
2022-10-06T16:10:17.453Z,100829.84
2022-10-06T16:12:46.484Z,100826.88
2022-10-06T16:15:15.661Z,100832.41
2022-10-06T16:17:44.645Z,100824.22
2022-10-06T16:20:15.272Z,100825.50
2022-10-06T16:22:44.255Z,100823.38
2022-10-06T16:25:15.142Z,100820.41
2022-10-06T16:27:44.145Z,100830.66
2022-10-06T16:30:13.589Z,100825.31
2022-10-06T16:32:42.583Z,100820.00
2022-10-06T16:35:16.049Z,100827.63
2022-10-06T16:37:49.887Z,100825.97
2022-10-06T16:40:22.572Z,100820.91
2022-10-06T16:42:53.086Z,100826.38
2022-10-06T16:45:22.105Z,100831.56
2022-10-06T16:47:51.125Z,100833.38
2022-10-06T16:50:20.132Z,100832.50
2022-10-06T16:52:49.117Z,100833.75
2022-10-06T16:55:19.539Z,100836.84
2022-10-06T16:57:48.587Z,100843.09
2022-10-06T17:00:17.961Z,100835.13
2022-10-06T17:02:46.996Z,100835.84
2022-10-06T17:05:16.243Z,100841.06
2022-10-06T17:07:45.240Z,100839.88
2022-10-06T17:10:20.501Z,100839.28
2022-10-06T17:12:51.440Z,100842.88
2022-10-06T17:15:20.472Z,100849.66
2022-10-06T17:17:49.502Z,100845.34
2022-10-06T17:20:18.594Z,100850.34
2022-10-06T17:22:48.597Z,100857.09
2022-10-06T17:25:17.638Z,100855.22
2022-10-06T17:27:46.667Z,100846.44
2022-10-06T17:30:17.266Z,100851.63
2022-10-06T17:32:47.351Z,100859.66
2022-10-06T17:35:19.105Z,100861.41
2022-10-06T17:37:50.232Z,100854.22
2022-10-06T17:40:19.525Z,100850.72
2022-10-06T17:42:48.519Z,100867.47
2022-10-06T17:45:21.303Z,100861.09
2022-10-06T17:47:51.739Z,100866.81
2022-10-06T17:50:20.774Z,100868.66
2022-10-06T17:52:49.757Z,100866.03
2022-10-06T17:55:18.904Z,100866.03
2022-10-06T17:57:47.900Z,100868.88
2022-10-06T18:00:18.777Z,100863.78
2022-10-06T18:02:48.006Z,100871.03
2022-10-06T18:05:18.055Z,100877.47
2022-10-06T18:07:47.350Z,100869.97
2022-10-06T18:10:33.980Z,100871.16
2022-10-06T18:13:02.982Z,100858.59
2022-10-06T18:15:37.134Z,100870.34
2022-10-06T18:18:06.372Z,100859.75
2022-10-06T18:20:40.317Z,100861.25
2022-10-06T18:23:09.985Z,100865.06
2022-10-06T18:25:40.203Z,100867.03
2022-10-06T18:28:10.407Z,100874.00
2022-10-06T18:30:40.872Z,100867.06
2022-10-06T18:36:12.935Z,100870.38
2022-10-06T18:38:46.947Z,100866.97
2022-10-06T18:41:18.932Z,100863.41
2022-10-06T18:43:47.924Z,100864.13
2022-10-06T18:46:36.622Z,100862.97
2022-10-06T18:49:10.533Z,100854.34
2022-10-06T18:51:41.611Z,100852.06
2022-10-06T18:54:13.422Z,100862.66
2022-10-06T18:56:46.254Z,100859.22
2022-10-06T18:59:16.386Z,100867.09
2022-10-06T19:01:48.804Z,100864.72
2022-10-06T19:04:19.911Z,100869.63
2022-10-06T19:06:53.071Z,100869.53
2022-10-06T19:09:24.382Z,100867.81
2022-10-06T19:11:57.768Z,100871.34
2022-10-06T19:14:29.849Z,100866.78
2022-10-06T19:17:04.795Z,100872.16
2022-10-06T19:19:35.019Z,100859.34
2022-10-06T19:22:05.543Z,100859.47
2022-10-06T19:24:38.138Z,100863.81
2022-10-06T19:27:12.196Z,100868.91
2022-10-06T19:29:45.739Z,100875.66
2022-10-06T19:32:19.797Z,100872.91
2022-10-06T19:34:49.048Z,100869.72
2022-10-06T19:37:18.139Z,100870.75
2022-10-06T19:39:50.228Z,100871.28
2022-10-06T19:42:38.672Z,100873.38
2022-10-06T19:45:11.849Z,100875.84
2022-10-06T19:47:42.984Z,100872.63
2022-10-06T19:50:12.981Z,100892.63
2022-10-06T19:52:42.540Z,100885.38
2022-10-06T19:55:11.588Z,100883.09
2022-10-06T19:57:40.632Z,100891.50
2022-10-06T20:00:11.556Z,100891.59
2022-10-06T20:02:45.329Z,100884.84
2022-10-06T20:05:36.593Z,100892.00
2022-10-06T20:08:23.956Z,100895.88
2022-10-06T20:11:14.098Z,100893.91
2022-10-06T20:14:01.388Z,100897.44
2022-10-06T20:16:50.696Z,100893.84
2022-10-06T20:19:40.060Z,100891.31
2022-10-06T20:22:27.943Z,100895.97
2022-10-06T20:25:15.802Z,100888.31
2022-10-06T20:28:08.192Z,100896.44
2022-10-06T20:30:58.780Z,100882.53
2022-10-06T20:33:49.582Z,100881.16
2022-10-06T20:36:39.983Z,100886.59
2022-10-06T20:39:45.075Z,100884.00
2022-10-06T20:42:32.766Z,100889.88
2022-10-06T20:45:21.025Z,100882.31
2022-10-06T20:48:09.109Z,100876.56
2022-10-06T20:50:58.028Z,100878.63
2022-10-06T20:53:47.622Z,100887.41
2022-10-06T20:56:37.319Z,100876.97
2022-10-06T20:59:25.821Z,100876.19
2022-10-06T21:02:13.604Z,100879.25
2022-10-06T21:05:02.329Z,100876.47
2022-10-06T21:07:50.855Z,100871.88
2022-10-06T21:10:40.040Z,100869.94
2022-10-06T21:13:29.200Z,100868.72
2022-10-06T21:16:17.036Z,100862.13
2022-10-06T21:19:08.098Z,100868.16
2022-10-06T21:21:56.040Z,100858.25
2022-10-06T21:24:43.687Z,100856.03
2022-10-06T21:27:32.515Z,100855.22
2022-10-06T21:30:20.195Z,100848.81
2022-10-06T21:33:07.544Z,100856.16
2022-10-06T21:36:02.267Z,100857.22
2022-10-06T21:38:53.350Z,100858.88
2022-10-06T21:41:41.817Z,100840.22
2022-10-06T21:44:30.692Z,100847.34
2022-10-06T21:47:18.738Z,100843.53
2022-10-06T21:50:07.116Z,100849.19
2022-10-06T21:52:57.617Z,100835.88
2022-10-06T21:55:47.055Z,100844.94
2022-10-06T21:58:47.480Z,100843.34
2022-10-06T22:01:43.241Z,100841.59
2022-10-06T22:04:34.887Z,100837.22
2022-10-06T22:07:30.603Z,100844.91
2022-10-06T22:11:16.366Z,100833.06
2022-10-06T22:14:24.297Z,100834.66
2022-10-06T22:17:51.983Z,100839.31
2022-10-06T22:20:46.853Z,100826.47
2022-10-06T22:23:35.022Z,100832.31
2022-10-06T22:26:26.315Z,100826.13
2022-10-06T22:29:17.886Z,100824.38
2022-10-06T22:32:38.299Z,100829.88
2022-10-06T22:35:27.105Z,100821.84
2022-10-06T22:38:18.212Z,100826.91
2022-10-06T22:41:08.936Z,100825.13
2022-10-06T22:43:59.200Z,100818.75
2022-10-06T22:46:52.023Z,100812.31
2022-10-06T22:49:41.877Z,100815.13
2022-10-06T22:52:44.093Z,100806.72
2022-10-06T22:55:35.879Z,100806.94
2022-10-06T22:58:24.265Z,100798.88
2022-10-06T23:01:17.558Z,100796.28
2022-10-06T23:04:09.841Z,100799.09
2022-10-06T23:07:00.386Z,100798.69
2022-10-06T23:09:54.310Z,100796.63
2022-10-06T23:12:42.902Z,100796.63
2022-10-06T23:15:31.470Z,100791.41
2022-10-06T23:23:03.068Z,100781.06
2022-10-06T23:25:51.894Z,100779.09
2022-10-06T23:28:41.891Z,100778.31
2022-10-06T23:31:31.979Z,100787.59
2022-10-06T23:34:20.701Z,100784.41
2022-10-06T23:37:14.422Z,100775.34
2022-10-06T23:40:04.813Z,100777.97
2022-10-06T23:42:53.427Z,100772.53
2022-10-06T23:45:42.247Z,100772.53
2022-10-06T23:48:30.764Z,100768.28
2022-10-06T23:51:19.669Z,100765.13
2022-10-06T23:54:08.695Z,100757.91
2022-10-06T23:56:58.887Z,100746.28
2022-10-06T23:59:49.771Z,100755.13
